MSC Maya — 3FNF8 — position and weather

sailwx.info

Track history (hours):
 
Tides and Currents Weather Stations Pressure Air Temp Water Temp Dewpoint Dewpoint Depression Visibility Wind Speed Wind Dir Waves Ship Positions

MSC Maya

Last reported at 2016-Jul-23 02:33 UTC. Time now 2016-Jul-24 06:49 UTC.
Position N 01°11' E 103°40'.

Length 242 m; draft 7.5 m.

Type: Cargo ship. MMSI: 351384000.

Date/timePositionNaut miles runAvg speedWind from/ knotsBaromVisibWave heightAir tempDewpointWater temp
2016-Jul-23 02:33N 01°11' E 103°40'8 8.1
2016-Jul-23 01:33N 01°10' E 103°48'8 8.2
2016-Jul-23 00:33N 01°14' E 103°55'  
2016-Jul-18 00:23N 01°15' E 104°07'1113.0
2016-Jul-17 23:33N 01°13' E 103°57'10 9.8
2016-Jul-17 22:33N 01°14' E 103°47'2 2.4
2016-Jul-17 21:33N 01°16' E 103°46'0 0.0
2016-Jul-17 20:27N 01°16' E 103°46'0 0.0
2016-Jul-17 18:29N 01°16' E 103°46'0 0.0
2016-Jul-17 17:30N 01°16' E 103°46'0 0.0
2016-Jul-17 16:34N 01°16' E 103°46'0 0.0
2016-Jul-17 15:25N 01°16' E 103°46'0 0.0
2016-Jul-17 14:31N 01°16' E 103°46'0 0.0
2016-Jul-17 13:29N 01°16' E 103°46'0 0.0
2016-Jul-17 12:32N 01°16' E 103°46'0 0.0
2016-Jul-17 11:30N 01°16' E 103°46'0 0.0
2016-Jul-17 10:30N 01°16' E 103°46'0 0.0
2016-Jul-17 09:32N 01°16' E 103°46'0 0.0
2016-Jul-17 08:22N 01°16' E 103°46'0 0.1
2016-Jul-17 07:33N 01°16' E 103°46'2 1.9
2016-Jul-17 06:33N 01°15' E 103°48'0 0.0
2016-Jul-17 04:20N 01°15' E 103°48'0 0.1
2016-Jul-17 03:32N 01°15' E 103°48'0 0.1
2016-Jul-17 02:32N 01°15' E 103°48'0 0.0
2016-Jul-17 01:04N 01°15' E 103°48'0 0.0
2016-Jul-17 00:28N 01°15' E 103°48'0 0.0
2016-Jul-16 23:22N 01°15' E 103°48'0 0.1
2016-Jul-16 22:28N 01°15' E 103°48'0 0.0
2016-Jul-16 21:28N 01°15' E 103°48'0 0.1
2016-Jul-16 20:19N 01°15' E 103°48'0 0.0
2016-Jul-16 19:28N 01°15' E 103°48'0 0.0
2016-Jul-16 18:04N 01°15' E 103°48'0 0.1
2016-Jul-16 17:28N 01°15' E 103°48'0 0.1
2016-Jul-16 16:31N 01°15' E 103°48'0 0.0
2016-Jul-16 15:28N 01°15' E 103°48'0 0.1
2016-Jul-16 14:33N 01°15' E 103°48'8 7.4
2016-Jul-16 13:31N 01°13' E 103°41'2 0.1
2016-Jul-15 20:33N 01°11' E 103°40'8 8.5
2016-Jul-15 19:33N 01°11' E 103°49'1110.4
2016-Jul-15 18:32N 01°15' E 103°58'1110.8
2016-Jul-15 17:32N 01°17' E 104°09'  
Track history (hours):
 
Tides and Currents Weather Stations Pressure Air Temp Water Temp Dewpoint Dewpoint Depression Visibility Wind Speed Wind Dir Waves Ship Positions

MSC Maya

Last reported at 2016-Jul-23 02:33 UTC. Time now 2016-Jul-24 06:49 UTC.
Position N 01°11' E 103°40'.

Length 242 m; draft 7.5 m.

Type: Cargo ship. MMSI: 351384000.

Date/timePositionNaut miles runAvg speedWind from/ knotsBaromVisibWave heightAir tempDewpointWater temp
2016-Jul-23 02:33N 01°11' E 103°40'8 8.1
2016-Jul-23 01:33N 01°10' E 103°48'8 8.2
2016-Jul-23 00:33N 01°14' E 103°55'  
2016-Jul-18 00:23N 01°15' E 104°07'1113.0
2016-Jul-17 23:33N 01°13' E 103°57'10 9.8
2016-Jul-17 22:33N 01°14' E 103°47'2 2.4
2016-Jul-17 21:33N 01°16' E 103°46'0 0.0
2016-Jul-17 20:27N 01°16' E 103°46'0 0.0
2016-Jul-17 18:29N 01°16' E 103°46'0 0.0
2016-Jul-17 17:30N 01°16' E 103°46'0 0.0
2016-Jul-17 16:34N 01°16' E 103°46'0 0.0
2016-Jul-17 15:25N 01°16' E 103°46'0 0.0
2016-Jul-17 14:31N 01°16' E 103°46'0 0.0
2016-Jul-17 13:29N 01°16' E 103°46'0 0.0
2016-Jul-17 12:32N 01°16' E 103°46'0 0.0
2016-Jul-17 11:30N 01°16' E 103°46'0 0.0
2016-Jul-17 10:30N 01°16' E 103°46'0 0.0
2016-Jul-17 09:32N 01°16' E 103°46'0 0.0
2016-Jul-17 08:22N 01°16' E 103°46'0 0.1
2016-Jul-17 07:33N 01°16' E 103°46'2 1.9
2016-Jul-17 06:33N 01°15' E 103°48'0 0.0
2016-Jul-17 04:20N 01°15' E 103°48'0 0.1
2016-Jul-17 03:32N 01°15' E 103°48'0 0.1
2016-Jul-17 02:32N 01°15' E 103°48'0 0.0
2016-Jul-17 01:04N 01°15' E 103°48'0 0.0
2016-Jul-17 00:28N 01°15' E 103°48'0 0.0
2016-Jul-16 23:22N 01°15' E 103°48'0 0.1
2016-Jul-16 22:28N 01°15' E 103°48'0 0.0
2016-Jul-16 21:28N 01°15' E 103°48'0 0.1
2016-Jul-16 20:19N 01°15' E 103°48'0 0.0
2016-Jul-16 19:28N 01°15' E 103°48'0 0.0
2016-Jul-16 18:04N 01°15' E 103°48'0 0.1
2016-Jul-16 17:28N 01°15' E 103°48'0 0.1
2016-Jul-16 16:31N 01°15' E 103°48'0 0.0
2016-Jul-16 15:28N 01°15' E 103°48'0 0.1
2016-Jul-16 14:33N 01°15' E 103°48'8 7.4
2016-Jul-16 13:31N 01°13' E 103°41'2 0.1
2016-Jul-15 20:33N 01°11' E 103°40'8 8.5
2016-Jul-15 19:33N 01°11' E 103°49'1110.4
2016-Jul-15 18:32N 01°15' E 103°58'1110.8
2016-Jul-15 17:32N 01°17' E 104°09'  

Dump ship's entire track history